Time,TemperatureF,DewpointF,PressureIn,WindDirection,WindDirectionDegrees,WindSpeedMPH,WindSpeedGustMPH,Humidity,HourlyPrecipIn,Conditions,Clouds,dailyrainin,SoftwareType,DateUTC
2013-01-27 13:50:00,78.0,65.7,29.94,SW,225,2.0,-999.0,66,0.00,,,0.13,Wunderground v.1.15,2013-01-27 23:50:00,
2013-01-27 13:55:00,77.8,65.1,29.92,SSW,203,3.0,-999.0,65,0.00,,,0.13,Wunderground v.1.15,2013-01-27 23:55:00,
2013-01-27 14:00:00,77.8,65.1,29.92,SSW,203,3.0,-999.0,65,0.00,,,0.13,Wunderground v.1.15,2013-01-28 00:00:00,
2013-01-27 14:05:00,78.4,65.7,29.92,South,180,3.0,-999.0,65,0.00,,,0.13,Wunderground v.1.15,2013-01-28 00:05:00,
2013-01-27 14:10:00,78.4,65.7,29.92,South,180,3.0,-999.0,65,0.00,,,0.13,Wunderground v.1.15,2013-01-28 00:10:00,
2013-01-27 14:15:00,78.2,64.1,29.92,South,180,3.0,-999.0,62,0.00,,,0.13,Wunderground v.1.15,2013-01-28 00:15:00,
2013-01-27 14:20:00,78.2,64.1,29.92,South,180,3.0,-999.0,62,0.00,,,0.13,Wunderground v.1.15,2013-01-28 00:20:00,
2013-01-27 14:25:00,78.6,64.9,29.92,SW,225,3.0,-999.0,63,0.00,,,0.13,Wunderground v.1.15,2013-01-28 00:25:00,
2013-01-27 14:30:00,78.6,64.9,29.92,SW,225,3.0,-999.0,63,0.00,,,0.13,Wunderground v.1.15,2013-01-28 00:30:00,
2013-01-27 14:35:00,78.3,64.7,29.92,South,180,3.0,-999.0,63,0.00,,,0.13,Wunderground v.1.15,2013-01-28 00:35:00,
2013-01-27 14:40:00,78.3,64.7,29.92,South,180,3.0,-999.0,63,0.00,,,0.13,Wunderground v.1.15,2013-01-28 00:40:00,
2013-01-27 14:45:00,77.6,64.9,29.92,SSW,203,4.0,-999.0,65,0.00,,,0.13,Wunderground v.1.15,2013-01-28 00:45:00,
2013-01-27 14:50:00,77.6,64.9,29.92,SSW,203,4.0,-999.0,65,0.00,,,0.13,Wunderground v.1.15,2013-01-28 00:50:00,
2013-01-27 14:55:00,76.4,65.1,29.92,South,180,4.0,-999.0,68,0.00,,,0.13,Wunderground v.1.15,2013-01-28 00:55:00,
2013-01-27 15:00:00,76.4,65.1,29.92,South,180,4.0,-999.0,68,0.00,,,0.13,Wunderground v.1.15,2013-01-28 01:00:00,
2013-01-27 15:05:00,74.4,66.0,29.93,South,180,4.0,-999.0,75,0.00,,,0.13,Wunderground v.1.15,2013-01-28 01:05:00,
2013-01-27 15:10:00,74.4,66.0,29.93,South,180,4.0,-999.0,75,0.00,,,0.13,Wunderground v.1.15,2013-01-28 01:10:00,
2013-01-27 15:15:00,73.8,65.4,29.93,SSW,203,4.0,-999.0,75,0.00,,,0.13,Wunderground v.1.15,2013-01-28 01:15:00,
2013-01-27 15:20:00,73.8,65.4,29.93,SSW,203,4.0,-999.0,75,0.00,,,0.13,Wunderground v.1.15,2013-01-28 01:20:00,
2013-01-27 15:25:00,74.3,64.7,29.92,South,180,3.0,-999.0,72,0.00,,,0.13,Wunderground v.1.15,2013-01-28 01:25:00,
2013-01-27 15:30:00,74.3,64.7,29.92,South,180,3.0,-999.0,72,0.00,,,0.13,Wunderground v.1.15,2013-01-28 01:30:00,
2013-01-27 15:35:00,74.0,64.0,29.92,South,180,4.0,-999.0,71,0.00,,,0.13,Wunderground v.1.15,2013-01-28 01:35:00,
2013-01-27 15:40:00,74.0,64.0,29.92,South,180,4.0,-999.0,71,0.00,,,0.13,Wunderground v.1.15,2013-01-28 01:40:00,
2013-01-27 15:45:00,73.4,62.6,29.92,South,180,4.0,-999.0,69,0.00,,,0.13,Wunderground v.1.15,2013-01-28 01:45:00,
2013-01-27 15:50:00,73.4,62.6,29.92,South,180,4.0,-999.0,69,0.00,,,0.13,Wunderground v.1.15,2013-01-28 01:50:00,
2013-01-27 15:55:00,74.0,62.3,29.92,SSW,203,4.0,-999.0,67,0.00,,,0.13,Wunderground v.1.15,2013-01-28 01:55:00,
2013-01-27 16:00:00,74.0,62.3,29.92,SSW,203,4.0,-999.0,67,0.00,,,0.13,Wunderground v.1.15,2013-01-28 02:00:00,
2013-01-27 16:05:00,74.0,62.3,29.92,SSW,203,3.0,-999.0,67,0.00,,,0.13,Wunderground v.1.15,2013-01-28 02:05:00,
2013-01-27 16:10:00,74.0,62.3,29.92,SSW,203,3.0,-999.0,67,0.00,,,0.13,Wunderground v.1.15,2013-01-28 02:10:00,
2013-01-27 16:15:00,74.2,62.5,29.91,South,180,2.0,-999.0,67,0.00,,,0.13,Wunderground v.1.15,2013-01-28 02:15:00,
2013-01-27 16:20:00,74.2,62.5,29.91,South,180,2.0,-999.0,67,0.00,,,0.13,Wunderground v.1.15,2013-01-28 02:20:00,
2013-01-27 16:25:00,73.4,62.2,29.92,South,180,3.0,-999.0,68,0.00,,,0.13,Wunderground v.1.15,2013-01-28 02:25:00,
2013-01-27 16:30:00,73.4,62.2,29.92,South,180,3.0,-999.0,68,0.00,,,0.13,Wunderground v.1.15,2013-01-28 02:30:00,
2013-01-27 16:35:00,73.7,62.5,29.92,South,180,1.0,-999.0,68,0.00,,,0.13,Wunderground v.1.15,2013-01-28 02:35:00,
2013-01-27 16:40:00,73.7,62.5,29.92,South,180,1.0,-999.0,68,0.00,,,0.13,Wunderground v.1.15,2013-01-28 02:40:00,
2013-01-27 16:45:00,73.7,61.2,29.92,South,180,2.0,-999.0,65,0.00,,,0.13,Wunderground v.1.15,2013-01-28 02:45:00,
2013-01-27 16:50:00,73.7,61.2,29.92,South,180,2.0,-999.0,65,0.00,,,0.13,Wunderground v.1.15,2013-01-28 02:50:00,
2013-01-27 16:55:00,73.7,61.2,29.92,South,180,2.0,-999.0,65,0.00,,,0.13,Wunderground v.1.15,2013-01-28 02:55:00,
2013-01-27 17:00:00,73.7,61.2,29.92,South,180,2.0,-999.0,65,0.00,,,0.13,Wunderground v.1.15,2013-01-28 03:00:00,
2013-01-27 17:05:00,73.8,61.7,29.92,SSE,158,2.0,-999.0,66,0.00,,,0.13,Wunderground v.1.15,2013-01-28 03:05:00,
2013-01-27 17:10:00,73.8,61.7,29.92,SSE,158,2.0,-999.0,66,0.00,,,0.13,Wunderground v.1.15,2013-01-28 03:10:00,
2013-01-27 17:15:00,73.8,60.9,29.92,South,180,2.0,-999.0,64,0.00,,,0.13,Wunderground v.1.15,2013-01-28 03:15:00,
2013-01-27 17:20:00,73.8,60.9,29.92,South,180,2.0,-999.0,64,0.00,,,0.13,Wunderground v.1.15,2013-01-28 03:20:00,
2013-01-27 17:25:00,73.5,60.6,29.92,South,180,2.0,-999.0,64,0.00,,,0.13,Wunderground v.1.15,2013-01-28 03:25:00,
2013-01-27 17:30:00,73.5,60.6,29.92,South,180,2.0,-999.0,64,0.00,,,0.13,Wunderground v.1.15,2013-01-28 03:30:00,
2013-01-27 17:35:00,72.9,60.9,29.92,South,180,1.0,-999.0,66,0.00,,,0.13,Wunderground v.1.15,2013-01-28 03:35:00,
2013-01-27 17:40:00,72.9,60.9,29.92,South,180,1.0,-999.0,66,0.00,,,0.13,Wunderground v.1.15,2013-01-28 03:40:00,
2013-01-27 17:45:00,71.8,61.1,29.93,SSW,203,0.0,-999.0,69,0.00,,,0.13,Wunderground v.1.15,2013-01-28 03:45:00,
2013-01-27 17:50:00,71.8,61.1,29.93,SSW,203,0.0,-999.0,69,0.00,,,0.13,Wunderground v.1.15,2013-01-28 03:50:00,
2013-01-27 17:55:00,70.7,60.8,29.93,SSW,203,0.0,-999.0,71,0.00,,,0.13,Wunderground v.1.15,2013-01-28 03:55:00,
2013-01-27 18:00:00,70.7,60.8,29.93,SSW,203,0.0,-999.0,71,0.00,,,0.13,Wunderground v.1.15,2013-01-28 04:00:00,
2013-01-27 18:05:00,69.6,61.3,29.94,N/A,-737280,0.0,-999.0,75,0.00,,,0.13,Wunderground v.1.15,2013-01-28 04:05:00,
2013-01-27 18:10:00,69.6,61.3,29.94,N/A,-737280,0.0,-999.0,75,0.00,,,0.13,Wunderground v.1.15,2013-01-28 04:10:00,
2013-01-27 18:15:00,68.5,61.0,29.94,N/A,-737280,0.0,-999.0,77,0.00,,,0.13,Wunderground v.1.15,2013-01-28 04:15:00,
2013-01-27 18:20:00,68.5,61.0,29.94,N/A,-737280,0.0,-999.0,77,0.00,,,0.13,Wunderground v.1.15,2013-01-28 04:20:00,
2013-01-27 18:25:00,67.2,60.5,29.94,N/A,-737280,0.0,-999.0,79,0.00,,,0.13,Wunderground v.1.15,2013-01-28 04:25:00,
2013-01-27 18:30:00,67.2,60.5,29.94,N/A,-737280,0.0,-999.0,79,0.00,,,0.13,Wunderground v.1.15,2013-01-28 04:30:00,
2013-01-27 18:35:00,66.0,60.7,29.95,N/A,-737280,0.0,-999.0,83,0.00,,,0.13,Wunderground v.1.15,2013-01-28 04:35:00,
2013-01-27 18:40:00,66.0,60.7,29.95,N/A,-737280,0.0,-999.0,83,0.00,,,0.13,Wunderground v.1.15,2013-01-28 04:40:00,
2013-01-27 18:45:00,65.0,59.7,29.95,N/A,-737280,0.0,-999.0,83,0.00,,,0.13,Wunderground v.1.15,2013-01-28 04:45:00,
2013-01-27 18:50:00,65.0,59.7,29.95,N/A,-737280,0.0,-999.0,83,0.00,,,0.13,Wunderground v.1.15,2013-01-28 04:50:00,
2013-01-27 18:55:00,64.4,59.8,29.95,N/A,-737280,0.0,-999.0,85,0.00,,,0.13,Wunderground v.1.15,2013-01-28 04:55:00,
2013-01-27 19:00:00,64.4,59.8,29.95,N/A,-737280,0.0,-999.0,85,0.00,,,0.13,Wunderground v.1.15,2013-01-28 05:00:00,
2013-01-27 19:05:00,64.0,59.7,29.96,N/A,-737280,0.0,-999.0,86,0.00,,,0.13,Wunderground v.1.15,2013-01-28 05:05:00,
2013-01-27 19:10:00,64.0,59.7,29.96,N/A,-737280,0.0,-999.0,86,0.00,,,0.13,Wunderground v.1.15,2013-01-28 05:10:00,
2013-01-27 19:15:00,63.5,59.2,29.96,N/A,-737280,0.0,-999.0,86,0.00,,,0.13,Wunderground v.1.15,2013-01-28 05:15:00,
2013-01-27 19:20:00,63.5,59.2,29.96,N/A,-737280,0.0,-999.0,86,0.00,,,0.13,Wunderground v.1.15,2013-01-28 05:20:00,
2013-01-27 19:25:00,63.3,58.7,29.96,N/A,-737280,0.0,-999.0,85,0.00,,,0.13,Wunderground v.1.15,2013-01-28 05:25:00,
2013-01-27 19:30:00,63.3,58.7,29.96,N/A,-737280,0.0,-999.0,85,0.00,,,0.13,Wunderground v.1.15,2013-01-28 05:30:00,
2013-01-27 19:35:00,64.1,58.8,29.97,SSW,203,0.0,-999.0,83,0.00,,,0.13,Wunderground v.1.15,2013-01-28 05:35:00,
2013-01-27 19:40:00,64.1,58.8,29.97,SSW,203,0.0,-999.0,83,0.00,,,0.13,Wunderground v.1.15,2013-01-28 05:40:00,
2013-01-27 19:45:00,64.5,58.2,29.97,SW,225,0.0,-999.0,80,0.00,,,0.13,Wunderground v.1.15,2013-01-28 05:45:00,
2013-01-27 19:50:00,64.5,58.2,29.97,SW,225,0.0,-999.0,80,0.00,,,0.13,Wunderground v.1.15,2013-01-28 05:50:00,
2013-01-27 19:55:00,64.6,58.3,29.97,South,180,0.0,-999.0,80,0.00,,,0.13,Wunderground v.1.15,2013-01-28 05:55:00,
2013-01-27 20:00:00,64.6,58.3,29.97,South,180,0.0,-999.0,80,0.00,,,0.13,Wunderground v.1.15,2013-01-28 06:00:00,
2013-01-27 20:05:00,64.7,57.7,29.97,South,180,0.0,-999.0,78,0.00,,,0.13,Wunderground v.1.15,2013-01-28 06:05:00,
2013-01-27 20:10:00,64.7,57.7,29.97,South,180,0.0,-999.0,78,0.00,,,0.13,Wunderground v.1.15,2013-01-28 06:10:00,
2013-01-27 20:15:00,64.6,57.6,29.98,South,180,0.0,-999.0,78,0.00,,,0.13,Wunderground v.1.15,2013-01-28 06:15:00,
2013-01-27 20:20:00,64.6,57.6,29.98,South,180,0.0,-999.0,78,0.00,,,0.13,Wunderground v.1.15,2013-01-28 06:20:00,
2013-01-27 20:25:00,64.3,58.0,29.98,South,180,0.0,-999.0,80,0.00,,,0.13,Wunderground v.1.15,2013-01-28 06:25:00,
2013-01-27 20:30:00,64.3,58.0,29.98,South,180,0.0,-999.0,80,0.00,,,0.13,Wunderground v.1.15,2013-01-28 06:30:00,
2013-01-27 20:35:00,63.6,58.0,29.99,South,180,0.0,-999.0,82,0.00,,,0.13,Wunderground v.1.15,2013-01-28 06:35:00,
2013-01-27 20:40:00,63.6,58.0,29.99,South,180,0.0,-999.0,82,0.00,,,0.13,Wunderground v.1.15,2013-01-28 06:40:00,
2013-01-27 20:45:00,63.0,57.8,29.99,N/A,-737280,0.0,-999.0,83,0.00,,,0.13,Wunderground v.1.15,2013-01-28 06:45:00,
2013-01-27 20:50:00,63.0,57.8,29.99,N/A,-737280,0.0,-999.0,83,0.00,,,0.13,Wunderground v.1.15,2013-01-28 06:50:00,
2013-01-27 20:55:00,62.7,57.8,29.99,N/A,-737280,0.0,-999.0,84,0.00,,,0.13,Wunderground v.1.15,2013-01-28 06:55:00,
2013-01-27 21:00:00,62.7,57.8,29.99,N/A,-737280,0.0,-999.0,84,0.00,,,0.13,Wunderground v.1.15,2013-01-28 07:00:00,
2013-01-27 21:05:00,62.3,57.7,29.99,N/A,-737280,0.0,-999.0,85,0.00,,,0.13,Wunderground v.1.15,2013-01-28 07:05:00,
2013-01-27 21:10:00,62.3,57.7,29.99,N/A,-737280,0.0,-999.0,85,0.00,,,0.13,Wunderground v.1.15,2013-01-28 07:10:00,
2013-01-27 21:15:00,62.2,58.0,29.99,South,180,0.0,-999.0,86,0.00,,,0.13,Wunderground v.1.15,2013-01-28 07:15:00,
2013-01-27 21:20:00,62.2,58.0,29.99,South,180,0.0,-999.0,86,0.00,,,0.13,Wunderground v.1.15,2013-01-28 07:20:00,
2013-01-27 21:25:00,62.3,57.7,30.00,South,180,0.0,-999.0,85,0.00,,,0.13,Wunderground v.1.15,2013-01-28 07:25:00,
2013-01-27 21:30:00,62.3,57.7,30.00,South,180,0.0,-999.0,85,0.00,,,0.13,Wunderground v.1.15,2013-01-28 07:30:00,
2013-01-27 21:35:00,62.4,57.5,29.99,SSW,203,0.0,-999.0,84,0.00,,,0.13,Wunderground v.1.15,2013-01-28 07:35:00,
2013-01-27 21:40:00,62.4,57.5,29.99,SSW,203,0.0,-999.0,84,0.00,,,0.13,Wunderground v.1.15,2013-01-28 07:40:00,
2013-01-27 21:45:00,62.8,57.9,30.00,SSW,203,0.0,-999.0,84,0.00,,,0.13,Wunderground v.1.15,2013-01-28 07:45:00,
2013-01-27 21:50:00,62.8,57.9,30.00,SSW,203,0.0,-999.0,84,0.00,,,0.13,Wunderground v.1.15,2013-01-28 07:50:00,
2013-01-27 21:55:00,62.7,57.8,30.00,SSW,203,0.0,-999.0,84,0.00,,,0.13,Wunderground v.1.15,2013-01-28 07:55:00,
2013-01-27 22:00:00,62.7,57.8,30.00,SSW,203,0.0,-999.0,84,0.00,,,0.13,Wunderground v.1.15,2013-01-28 08:00:00,
2013-01-27 22:05:00,62.3,58.1,30.00,N/A,-737280,0.0,-999.0,86,0.00,,,0.13,Wunderground v.1.15,2013-01-28 08:05:00,
2013-01-27 22:10:00,62.3,58.1,30.00,N/A,-737280,0.0,-999.0,86,0.00,,,0.13,Wunderground v.1.15,2013-01-28 08:10:00,
2013-01-27 22:15:00,62.1,57.9,30.00,SSW,203,0.0,-999.0,86,0.00,,,0.13,Wunderground v.1.15,2013-01-28 08:15:00,
2013-01-27 22:20:00,62.1,57.9,30.00,SSW,203,0.0,-999.0,86,0.00,,,0.13,Wunderground v.1.15,2013-01-28 08:20:00,
2013-01-27 22:25:00,62.1,57.9,30.00,N/A,-737280,0.0,-999.0,86,0.00,,,0.13,Wunderground v.1.15,2013-01-28 08:25:00,
2013-01-27 22:30:00,62.1,57.9,30.00,N/A,-737280,0.0,-999.0,86,0.00,,,0.13,Wunderground v.1.15,2013-01-28 08:30:00,
2013-01-27 22:35:00,62.1,58.2,30.00,N/A,-737280,0.0,-999.0,87,0.00,,,0.13,Wunderground v.1.15,2013-01-28 08:35:00,
2013-01-27 22:40:00,62.1,58.2,30.00,N/A,-737280,0.0,-999.0,87,0.00,,,0.13,Wunderground v.1.15,2013-01-28 08:40:00,
2013-01-27 22:45:00,62.3,58.4,30.00,SSW,203,0.0,-999.0,87,0.00,,,0.13,Wunderground v.1.15,2013-01-28 08:45:00,
2013-01-27 22:50:00,62.3,58.4,30.00,SSW,203,0.0,-999.0,87,0.00,,,0.13,Wunderground v.1.15,2013-01-28 08:50:00,
2013-01-27 22:55:00,62.5,58.6,30.00,SSW,203,0.0,-999.0,87,0.00,,,0.13,Wunderground v.1.15,2013-01-28 08:55:00,
2013-01-27 23:00:00,62.5,58.6,30.00,SSW,203,0.0,-999.0,87,0.00,,,0.13,Wunderground v.1.15,2013-01-28 09:00:00,
2013-01-27 23:05:00,62.6,58.7,30.00,SSW,203,0.0,-999.0,87,0.00,,,0.13,Wunderground v.1.15,2013-01-28 09:05:00,
2013-01-27 23:10:00,62.6,58.7,30.00,SSW,203,0.0,-999.0,87,0.00,,,0.13,Wunderground v.1.15,2013-01-28 09:10:00,
2013-01-27 23:15:00,62.6,58.7,30.00,N/A,-737280,0.0,-999.0,87,0.00,,,0.13,Wunderground v.1.15,2013-01-28 09:15:00,
2013-01-27 23:20:00,62.6,58.7,30.00,N/A,-737280,0.0,-999.0,87,0.00,,,0.13,Wunderground v.1.15,2013-01-28 09:20:00,
2013-01-27 23:25:00,62.5,58.6,29.99,N/A,-737280,0.0,-999.0,87,0.00,,,0.13,Wunderground v.1.15,2013-01-28 09:25:00,
2013-01-27 23:30:00,62.5,58.6,29.99,N/A,-737280,0.0,-999.0,87,0.00,,,0.13,Wunderground v.1.15,2013-01-28 09:30:00,
2013-01-27 23:35:00,62.5,58.6,29.99,N/A,-737280,0.0,-999.0,87,0.00,,,0.13,Wunderground v.1.15,2013-01-28 09:35:00,
2013-01-27 23:40:00,62.5,58.6,29.99,N/A,-737280,0.0,-999.0,87,0.00,,,0.13,Wunderground v.1.15,2013-01-28 09:40:00,
2013-01-27 23:45:00,62.1,58.2,29.99,N/A,-737280,0.0,-999.0,87,0.00,,,0.13,Wunderground v.1.15,2013-01-28 09:45:00,
2013-01-27 23:50:00,62.1,58.2,29.99,N/A,-737280,0.0,-999.0,87,0.00,,,0.13,Wunderground v.1.15,2013-01-28 09:50:00,
2013-01-27 23:55:00,61.6,58.0,29.99,N/A,-737280,0.0,-999.0,88,0.00,,,0.13,Wunderground v.1.15,2013-01-28 09:55:00,